createdAt,value
2017-06-29T00:02:17.256Z,2.10
2017-06-29T00:04:46.471Z,1.90
2017-06-29T00:07:14.886Z,2.17
2017-06-29T00:09:43.319Z,2.57
2017-06-29T00:12:12.508Z,2.57
2017-06-29T00:14:41.703Z,1.80
2017-06-29T00:17:10.135Z,1.60
2017-06-29T00:19:38.555Z,2.10
2017-06-29T00:22:06.972Z,2.20
2017-06-29T00:24:35.486Z,2.23
2017-06-29T00:27:03.911Z,1.53
2017-06-29T00:29:32.367Z,2.03
2017-06-29T00:32:00.793Z,1.67
2017-06-29T00:34:30.021Z,1.93
2017-06-29T00:36:58.451Z,1.50
2017-06-29T00:39:26.884Z,1.50
2017-06-29T00:41:55.303Z,1.63
2017-06-29T00:44:23.726Z,1.40
2017-06-29T00:46:52.158Z,1.53
2017-06-29T00:49:20.605Z,1.33
2017-06-29T00:51:49.039Z,1.50
2017-06-29T00:54:18.276Z,1.20
2017-06-29T00:56:46.701Z,1.17
2017-06-29T00:59:15.135Z,2.10
2017-06-29T01:01:43.575Z,1.23
2017-06-29T01:04:12.070Z,1.33
2017-06-29T01:06:40.508Z,1.57
2017-06-29T01:09:08.923Z,1.20
2017-06-29T01:11:37.338Z,1.10
2017-06-29T01:14:05.784Z,1.63
2017-06-29T01:16:34.890Z,1.33
2017-06-29T01:19:04.111Z,1.53
2017-06-29T01:21:33.034Z,1.43
2017-06-29T01:24:01.487Z,1.50
2017-06-29T01:26:29.941Z,1.40
2017-06-29T01:28:58.373Z,0.97
2017-06-29T01:31:26.808Z,1.20
2017-06-29T01:33:55.237Z,1.20
2017-06-29T01:36:23.687Z,1.23
2017-06-29T01:38:52.882Z,1.20
2017-06-29T01:41:22.087Z,1.30
2017-06-29T01:43:51.361Z,1.70
2017-06-29T01:46:19.429Z,1.30
2017-06-29T01:48:47.868Z,1.10
2017-06-29T01:51:16.293Z,1.47
2017-06-29T01:53:44.736Z,1.20
2017-06-29T01:56:12.859Z,0.97
2017-06-29T01:58:41.358Z,1.27
2017-06-29T02:01:10.600Z,1.73
2017-06-29T02:03:39.010Z,1.60
2017-06-29T02:06:07.107Z,1.30
2017-06-29T02:08:35.947Z,1.30
2017-06-29T02:11:04.378Z,1.40
2017-06-29T02:13:33.648Z,1.20
2017-06-29T02:16:02.084Z,1.50
2017-06-29T02:18:30.515Z,1.60
2017-06-29T02:20:58.979Z,1.17
2017-06-29T02:23:27.434Z,2.63
2017-06-29T02:25:55.883Z,1.77
2017-06-29T02:28:25.087Z,1.40
2017-06-29T02:30:54.298Z,1.60
2017-06-29T02:33:22.732Z,1.50
2017-06-29T02:35:51.175Z,1.50
2017-06-29T02:38:19.619Z,1.90
2017-06-29T02:40:48.052Z,1.87
2017-06-29T02:43:16.511Z,1.50
2017-06-29T02:45:45.686Z,1.70
2017-06-29T02:48:14.908Z,1.60
2017-06-29T02:50:43.331Z,1.70
2017-06-29T02:53:11.775Z,1.73
2017-06-29T02:55:40.202Z,1.30
2017-06-29T02:58:08.641Z,1.60
2017-06-29T03:00:37.075Z,1.70
2017-06-29T03:03:05.523Z,1.70
2017-06-29T03:05:34.009Z,1.33
2017-06-29T03:08:02.439Z,1.40
2017-06-29T03:10:31.583Z,1.47
2017-06-29T03:13:00.023Z,2.03
2017-06-29T03:15:29.206Z,1.30
2017-06-29T03:17:57.651Z,1.50
2017-06-29T03:20:26.295Z,1.60
2017-06-29T03:22:55.488Z,1.50
2017-06-29T03:25:24.706Z,1.83
2017-06-29T03:27:53.886Z,1.80
2017-06-29T03:30:22.331Z,1.80
2017-06-29T03:32:50.755Z,1.50
2017-06-29T03:35:19.958Z,1.80
2017-06-29T03:37:49.205Z,2.07
2017-06-29T03:40:18.318Z,1.90
2017-06-29T03:42:46.755Z,1.90
2017-06-29T03:45:15.175Z,1.80
2017-06-29T03:47:43.906Z,1.70
2017-06-29T03:50:13.119Z,2.20
2017-06-29T03:52:41.561Z,1.70
2017-06-29T03:55:10.775Z,1.90
2017-06-29T03:57:39.190Z,1.70
2017-06-29T04:00:07.642Z,1.37
2017-06-29T04:02:36.835Z,1.40
2017-06-29T04:05:05.270Z,1.70
2017-06-29T04:07:33.710Z,1.80
2017-06-29T04:10:02.903Z,1.90
2017-06-29T04:12:32.431Z,1.27
2017-06-29T04:15:01.615Z,1.67
2017-06-29T04:17:30.835Z,1.70
2017-06-29T04:19:59.251Z,2.00
2017-06-29T04:22:27.666Z,2.00
2017-06-29T04:24:56.871Z,1.83
2017-06-29T04:27:25.983Z,1.50
2017-06-29T04:29:54.427Z,2.60
2017-06-29T04:32:22.929Z,1.80
2017-06-29T04:34:52.155Z,1.93
2017-06-29T04:37:20.823Z,2.00
2017-06-29T04:39:50.010Z,2.00
2017-06-29T04:42:19.307Z,1.90
2017-06-29T04:44:47.737Z,2.03
2017-06-29T04:47:16.399Z,2.20
2017-06-29T04:49:44.820Z,1.97
2017-06-29T04:52:13.283Z,2.57
2017-06-29T04:54:41.698Z,1.60
2017-06-29T04:57:10.324Z,1.97
2017-06-29T04:59:39.543Z,2.43
2017-06-29T05:02:08.003Z,1.87
2017-06-29T05:04:37.202Z,2.23
2017-06-29T05:07:06.409Z,2.00
2017-06-29T05:09:35.755Z,1.70
2017-06-29T05:12:04.186Z,1.70
2017-06-29T05:14:33.455Z,1.63
2017-06-29T05:17:01.951Z,2.00
2017-06-29T05:19:30.366Z,2.07
2017-06-29T05:21:58.790Z,2.00
2017-06-29T05:24:27.234Z,1.70
2017-06-29T05:26:55.765Z,1.67
2017-06-29T05:29:24.303Z,1.80
2017-06-29T05:31:52.768Z,2.03
2017-06-29T05:34:22.013Z,2.27
2017-06-29T05:36:50.456Z,2.00
2017-06-29T05:39:19.710Z,2.40
2017-06-29T05:41:48.148Z,2.57
2017-06-29T05:44:16.580Z,2.57
2017-06-29T05:46:46.537Z,2.27
2017-06-29T05:49:14.999Z,2.37
2017-06-29T05:51:43.471Z,2.40
2017-06-29T05:54:11.951Z,2.30
2017-06-29T05:56:40.367Z,2.30
2017-06-29T05:59:08.805Z,2.00
2017-06-29T06:01:37.251Z,2.97
2017-06-29T06:04:05.698Z,2.80
2017-06-29T06:06:34.894Z,2.40
2017-06-29T06:09:03.386Z,2.73
2017-06-29T06:11:31.818Z,2.50
2017-06-29T06:14:00.255Z,2.50
2017-06-29T06:16:28.708Z,2.70
2017-06-29T06:18:57.192Z,2.30
2017-06-29T06:21:25.635Z,3.57
2017-06-29T06:23:54.067Z,2.50
2017-06-29T06:26:23.259Z,2.40
2017-06-29T06:28:52.471Z,2.67
2017-06-29T06:31:21.659Z,2.33
2017-06-29T06:33:50.855Z,2.80
2017-06-29T06:36:20.097Z,3.20
2017-06-29T06:38:48.531Z,2.40
2017-06-29T06:41:16.964Z,3.00
2017-06-29T06:43:45.398Z,2.40
2017-06-29T06:46:14.642Z,2.70
2017-06-29T06:48:43.082Z,2.20
2017-06-29T06:51:11.504Z,2.33
2017-06-29T06:53:40.024Z,2.10
2017-06-29T06:56:08.448Z,2.20
2017-06-29T06:58:36.884Z,2.17
2017-06-29T07:01:05.310Z,2.20
2017-06-29T07:03:33.755Z,2.70
2017-06-29T07:06:02.183Z,1.87
2017-06-29T07:08:30.727Z,2.10
2017-06-29T07:10:59.235Z,1.90
2017-06-29T07:13:27.668Z,2.60
2017-06-29T07:15:56.799Z,1.83
2017-06-29T07:18:25.232Z,1.80
2017-06-29T07:20:53.651Z,1.77
2017-06-29T07:23:22.210Z,1.83
2017-06-29T07:25:50.473Z,1.80
2017-06-29T07:28:18.919Z,2.07
2017-06-29T07:30:47.348Z,2.20
2017-06-29T07:33:16.475Z,1.80
2017-06-29T07:35:44.905Z,1.83
2017-06-29T07:38:13.347Z,1.90
2017-06-29T07:40:41.798Z,1.93
2017-06-29T07:43:09.867Z,1.50
2017-06-29T07:45:38.303Z,2.40
2017-06-29T07:48:06.783Z,2.03
2017-06-29T07:50:35.242Z,1.90
2017-06-29T07:53:03.657Z,1.90
2017-06-29T07:55:32.087Z,1.93
2017-06-29T07:58:01.063Z,1.90
2017-06-29T08:00:30.176Z,2.10
2017-06-29T08:02:58.622Z,2.60
2017-06-29T08:05:27.046Z,2.00
2017-06-29T08:07:55.499Z,1.80
2017-06-29T08:10:24.613Z,2.07
2017-06-29T08:12:53.054Z,2.30
2017-06-29T08:15:21.489Z,2.03
2017-06-29T08:17:49.919Z,2.47
2017-06-29T08:20:18.356Z,2.07
2017-06-29T08:22:46.778Z,2.23
2017-06-29T08:25:15.227Z,2.93
2017-06-29T08:27:43.715Z,2.53
2017-06-29T08:30:12.982Z,1.60
2017-06-29T08:32:41.406Z,1.80
2017-06-29T08:35:09.886Z,1.80
2017-06-29T08:37:39.085Z,1.93
2017-06-29T08:40:08.271Z,1.97
2017-06-29T08:42:37.591Z,1.57
2017-06-29T08:45:06.059Z,2.37
2017-06-29T08:47:35.281Z,1.50
2017-06-29T08:50:03.699Z,1.90
2017-06-29T08:52:32.123Z,1.73
2017-06-29T08:55:00.570Z,1.70
2017-06-29T08:57:29.026Z,1.77
2017-06-29T08:59:57.482Z,2.20
2017-06-29T09:02:25.939Z,1.77
2017-06-29T09:04:54.376Z,1.70
2017-06-29T09:07:22.818Z,2.07
2017-06-29T09:09:51.254Z,1.80
2017-06-29T09:12:19.700Z,1.80
2017-06-29T09:14:48.123Z,1.60
2017-06-29T09:17:16.574Z,1.70
2017-06-29T09:19:44.996Z,1.57
2017-06-29T09:22:13.439Z,1.60
2017-06-29T09:24:41.858Z,1.50
2017-06-29T09:27:10.292Z,1.60
2017-06-29T09:29:38.723Z,1.90
2017-06-29T09:32:07.139Z,1.70
2017-06-29T09:34:35.577Z,1.83
2017-06-29T09:37:04.049Z,2.20
2017-06-29T09:39:32.504Z,2.00
2017-06-29T09:42:00.923Z,1.90
2017-06-29T09:44:29.355Z,1.50
2017-06-29T09:46:57.782Z,1.80
2017-06-29T09:49:26.263Z,1.70
2017-06-29T09:51:54.761Z,1.57
2017-06-29T09:54:23.183Z,1.50
2017-06-29T09:56:51.630Z,1.57
2017-06-29T09:59:20.057Z,1.80
2017-06-29T10:01:48.563Z,1.67
2017-06-29T10:04:16.977Z,1.63
2017-06-29T10:06:45.444Z,1.60
2017-06-29T10:09:13.866Z,2.00
2017-06-29T10:11:42.301Z,1.20
2017-06-29T10:14:10.731Z,1.80
2017-06-29T10:16:39.167Z,1.30
2017-06-29T10:19:07.613Z,1.40
2017-06-29T10:21:36.039Z,1.47
2017-06-29T10:24:04.462Z,1.60
2017-06-29T10:26:32.947Z,1.30
2017-06-29T10:29:01.386Z,1.27
2017-06-29T10:31:29.825Z,1.40
2017-06-29T10:33:58.251Z,1.30
2017-06-29T10:36:26.687Z,1.50
2017-06-29T10:38:54.926Z,1.20
2017-06-29T10:41:23.365Z,1.03
2017-06-29T10:43:51.799Z,1.30
2017-06-29T10:46:20.231Z,1.30
2017-06-29T10:48:48.654Z,1.10
2017-06-29T10:51:17.107Z,1.17
2017-06-29T10:53:45.534Z,1.20
2017-06-29T10:56:14.005Z,1.30
2017-06-29T10:58:42.441Z,1.13
2017-06-29T11:01:10.867Z,1.20
2017-06-29T11:03:39.306Z,1.13
2017-06-29T11:06:07.724Z,1.27
2017-06-29T11:08:36.163Z,1.23
2017-06-29T11:11:04.555Z,1.00
2017-06-29T11:13:32.992Z,1.33
2017-06-29T11:16:01.415Z,1.53
2017-06-29T11:18:29.168Z,1.03
2017-06-29T11:20:57.594Z,1.90
2017-06-29T11:23:26.047Z,1.40
2017-06-29T11:25:55.171Z,1.20
2017-06-29T11:28:23.588Z,1.30
2017-06-29T11:30:52.034Z,1.20
2017-06-29T11:33:20.487Z,1.10
2017-06-29T11:35:49.047Z,1.30
2017-06-29T11:38:17.487Z,1.10
2017-06-29T11:40:45.939Z,1.23
2017-06-29T11:43:14.414Z,1.20
2017-06-29T11:45:42.839Z,1.20
2017-06-29T11:48:11.271Z,1.47
2017-06-29T11:50:39.703Z,1.53
2017-06-29T11:53:08.136Z,1.43
2017-06-29T11:55:36.611Z,1.63
2017-06-29T11:58:05.031Z,0.80
2017-06-29T12:00:33.480Z,1.10
2017-06-29T12:03:01.910Z,1.10
2017-06-29T12:05:30.378Z,0.97
2017-06-29T12:07:59.743Z,1.20
2017-06-29T12:10:28.174Z,1.10
2017-06-29T12:12:56.625Z,1.23
2017-06-29T12:15:25.046Z,0.93
2017-06-29T12:17:53.511Z,1.20
2017-06-29T12:20:22.699Z,1.20
2017-06-29T12:22:51.904Z,0.80
2017-06-29T12:25:21.043Z,0.90
2017-06-29T12:27:49.471Z,1.00
2017-06-29T12:30:17.933Z,1.10
2017-06-29T12:32:46.359Z,1.00
2017-06-29T12:35:14.778Z,0.80
2017-06-29T12:37:43.209Z,1.07
2017-06-29T12:40:11.639Z,1.37
2017-06-29T12:42:40.088Z,1.67
2017-06-29T12:45:08.543Z,1.27
2017-06-29T12:47:36.995Z,2.03
2017-06-29T12:50:05.415Z,1.10
2017-06-29T12:52:33.838Z,1.13
2017-06-29T12:55:02.370Z,1.30
2017-06-29T12:57:30.806Z,1.17
2017-06-29T12:59:59.256Z,0.90
2017-06-29T13:02:27.717Z,0.67
2017-06-29T13:04:55.792Z,0.77
2017-06-29T13:07:24.250Z,0.73
2017-06-29T13:09:52.782Z,0.70
2017-06-29T13:12:20.530Z,0.80
2017-06-29T13:14:48.979Z,0.70
2017-06-29T13:17:17.449Z,0.80
2017-06-29T13:19:45.892Z,0.80
2017-06-29T13:22:13.623Z,0.63
2017-06-29T13:24:42.094Z,0.60
2017-06-29T13:27:10.535Z,0.67
2017-06-29T13:29:39.103Z,0.60
2017-06-29T13:32:07.551Z,0.60
2017-06-29T13:34:36.010Z,0.50
2017-06-29T13:37:04.499Z,1.10
2017-06-29T13:39:33.066Z,0.70
2017-06-29T13:42:01.515Z,0.60
2017-06-29T13:44:29.955Z,0.80
2017-06-29T13:46:58.415Z,0.87
2017-06-29T13:49:27.022Z,0.70
2017-06-29T13:51:55.463Z,0.63
2017-06-29T13:54:23.943Z,0.80
2017-06-29T13:56:52.393Z,0.73
2017-06-29T13:59:20.848Z,0.83
2017-06-29T14:01:49.295Z,0.70
2017-06-29T14:04:17.766Z,0.60
2017-06-29T14:06:46.211Z,1.00
2017-06-29T14:09:14.667Z,1.00
2017-06-29T14:11:43.151Z,0.83
2017-06-29T14:14:11.584Z,0.60
2017-06-29T14:16:40.055Z,0.60
2017-06-29T14:19:08.521Z,0.63
2017-06-29T14:21:36.979Z,0.60
2017-06-29T14:24:05.471Z,0.70
2017-06-29T14:26:33.912Z,0.80
2017-06-29T14:29:02.368Z,0.50
2017-06-29T14:31:30.818Z,0.70
2017-06-29T14:33:59.131Z,0.50
2017-06-29T14:36:27.563Z,0.70
2017-06-29T14:38:56.001Z,0.60
2017-06-29T14:41:24.457Z,0.60
2017-06-29T14:43:52.984Z,0.80
2017-06-29T14:46:21.490Z,0.87
2017-06-29T14:48:49.913Z,0.80
2017-06-29T14:51:18.368Z,0.60
2017-06-29T14:53:46.841Z,0.90
2017-06-29T14:56:15.290Z,0.70
2017-06-29T14:58:43.738Z,0.60
2017-06-29T15:01:12.180Z,0.70
2017-06-29T15:03:40.633Z,0.50
2017-06-29T15:06:09.193Z,0.50
2017-06-29T15:08:37.631Z,0.80
2017-06-29T15:11:06.134Z,0.60
2017-06-29T15:13:34.574Z,0.50
2017-06-29T15:16:03.058Z,0.60
2017-06-29T15:18:31.512Z,0.63
2017-06-29T15:20:59.958Z,0.50
2017-06-29T15:23:28.419Z,0.60
2017-06-29T15:25:56.895Z,0.60
2017-06-29T15:28:25.392Z,0.60
2017-06-29T15:30:54.518Z,0.60
2017-06-29T15:33:22.966Z,0.53
2017-06-29T15:35:51.455Z,0.60
2017-06-29T15:38:20.159Z,0.50
2017-06-29T15:40:48.628Z,0.60
2017-06-29T15:43:17.128Z,0.70
2017-06-29T15:45:45.596Z,0.60
2017-06-29T15:48:14.723Z,0.50
2017-06-29T15:50:43.191Z,0.50
2017-06-29T15:53:11.635Z,0.50
2017-06-29T15:55:40.070Z,0.67
2017-06-29T15:58:08.559Z,0.80
2017-06-29T16:00:36.991Z,0.57
2017-06-29T16:03:05.447Z,0.70
2017-06-29T16:05:33.912Z,0.60
2017-06-29T16:08:02.355Z,0.50
2017-06-29T16:10:30.798Z,0.70
2017-06-29T16:12:59.268Z,0.70
2017-06-29T16:15:27.706Z,0.80
2017-06-29T16:17:56.159Z,0.70
2017-06-29T16:20:24.609Z,0.87
2017-06-29T16:22:53.096Z,0.70
2017-06-29T16:25:21.544Z,0.70
2017-06-29T16:27:49.987Z,0.50
2017-06-29T16:30:18.269Z,0.60
2017-06-29T16:32:46.700Z,0.57
2017-06-29T16:35:14.978Z,0.60
2017-06-29T16:37:43.430Z,0.57
2017-06-29T16:40:11.885Z,0.60
2017-06-29T16:42:40.351Z,0.50
2017-06-29T16:45:08.800Z,0.57
2017-06-29T16:47:37.302Z,0.60
2017-06-29T16:50:05.752Z,0.53
2017-06-29T16:52:34.216Z,0.60
2017-06-29T16:55:02.688Z,0.70
2017-06-29T16:57:31.143Z,1.40
2017-06-29T16:59:59.915Z,0.63
2017-06-29T17:02:28.351Z,0.53
2017-06-29T17:04:56.803Z,0.60
2017-06-29T17:07:25.279Z,0.70
2017-06-29T17:09:53.702Z,0.80
2017-06-29T17:12:22.181Z,0.70
2017-06-29T17:14:50.615Z,0.70
2017-06-29T17:17:19.119Z,0.90
2017-06-29T17:19:47.573Z,0.60
2017-06-29T17:22:16.069Z,0.70
2017-06-29T17:24:44.494Z,0.77
2017-06-29T17:27:12.950Z,0.50
2017-06-29T17:29:41.427Z,0.50
2017-06-29T17:32:09.887Z,0.60
2017-06-29T17:34:38.376Z,1.03
2017-06-29T17:37:06.874Z,0.53
2017-06-29T17:39:35.358Z,0.53
2017-06-29T17:42:03.859Z,0.70
2017-06-29T17:44:32.299Z,0.70
2017-06-29T17:47:00.781Z,0.70
2017-06-29T17:49:29.248Z,1.30
2017-06-29T17:51:57.760Z,0.80
2017-06-29T17:54:26.212Z,1.17
2017-06-29T17:56:54.927Z,0.70
2017-06-29T17:59:23.372Z,0.80
2017-06-29T18:01:53.452Z,0.80
2017-06-29T18:04:21.935Z,0.50
2017-06-29T18:06:50.456Z,0.50
2017-06-29T18:09:18.910Z,0.73
2017-06-29T18:11:47.386Z,0.70
2017-06-29T18:14:15.860Z,0.60
2017-06-29T18:16:44.307Z,0.93
2017-06-29T18:19:12.771Z,0.60
2017-06-29T18:21:41.255Z,0.77
2017-06-29T18:24:09.731Z,0.90
2017-06-29T18:26:38.223Z,0.97
2017-06-29T18:29:06.706Z,0.80
2017-06-29T18:31:35.224Z,1.03
2017-06-29T18:34:03.682Z,1.10
2017-06-29T18:36:32.167Z,0.90
2017-06-29T18:39:00.616Z,1.10
2017-06-29T18:41:29.839Z,0.77
2017-06-29T18:43:58.325Z,0.70
2017-06-29T18:46:26.815Z,0.73
2017-06-29T18:48:55.300Z,0.70
2017-06-29T18:51:23.859Z,0.70
2017-06-29T18:53:52.332Z,0.80
2017-06-29T18:56:21.597Z,0.90
2017-06-29T18:58:50.059Z,0.83
2017-06-29T19:01:18.674Z,0.83
2017-06-29T19:03:47.355Z,0.80
2017-06-29T19:06:16.515Z,0.80
2017-06-29T19:08:44.978Z,0.70
2017-06-29T19:11:13.443Z,0.93
2017-06-29T19:13:42.509Z,1.00
2017-06-29T19:16:10.944Z,1.10
2017-06-29T19:18:39.427Z,1.00
2017-06-29T19:21:07.872Z,1.10
2017-06-29T19:23:36.330Z,1.07
2017-06-29T19:26:04.795Z,0.97
2017-06-29T19:28:33.311Z,0.60
2017-06-29T19:31:01.779Z,0.90
2017-06-29T19:33:30.325Z,1.10
2017-06-29T19:35:58.814Z,0.83
2017-06-29T19:38:27.256Z,0.93
2017-06-29T19:40:56.526Z,0.93
2017-06-29T19:43:24.988Z,0.87
2017-06-29T19:45:53.505Z,1.20
2017-06-29T19:48:21.982Z,0.73
2017-06-29T19:50:50.435Z,0.70
2017-06-29T19:53:18.917Z,1.10
2017-06-29T19:55:47.547Z,0.80
2017-06-29T19:58:16.012Z,0.90
2017-06-29T20:00:44.498Z,0.80
2017-06-29T20:03:12.958Z,1.00
2017-06-29T20:05:41.522Z,0.87
2017-06-29T20:08:10.036Z,1.00
2017-06-29T20:10:38.499Z,0.97
2017-06-29T20:13:07.016Z,0.90
2017-06-29T20:15:35.452Z,0.90
2017-06-29T20:18:03.927Z,1.00
2017-06-29T20:20:32.392Z,1.07
2017-06-29T20:23:00.881Z,1.10
2017-06-29T20:25:29.403Z,1.03
2017-06-29T20:27:57.843Z,1.40
2017-06-29T20:30:26.364Z,1.23
2017-06-29T20:32:54.832Z,1.30
2017-06-29T20:35:23.305Z,1.10
2017-06-29T20:37:51.732Z,1.27
2017-06-29T20:40:20.201Z,1.07
2017-06-29T20:42:48.718Z,1.00
2017-06-29T20:45:17.187Z,0.93
2017-06-29T20:47:45.655Z,1.27
2017-06-29T20:50:14.118Z,1.17
2017-06-29T20:52:42.560Z,0.80
2017-06-29T20:55:11.018Z,1.00
2017-06-29T20:57:39.472Z,1.10
2017-06-29T21:00:07.934Z,0.93
2017-06-29T21:02:36.383Z,1.20
2017-06-29T21:05:04.891Z,1.20
2017-06-29T21:07:33.335Z,1.30
2017-06-29T21:10:01.792Z,1.17
2017-06-29T21:12:30.272Z,1.10
2017-06-29T21:14:58.739Z,0.80
2017-06-29T21:17:27.200Z,1.30
2017-06-29T21:19:55.662Z,1.07
2017-06-29T21:22:24.146Z,1.40
2017-06-29T21:24:52.595Z,1.40
2017-06-29T21:27:21.023Z,1.10
2017-06-29T21:29:49.497Z,1.60
2017-06-29T21:32:17.941Z,1.40
2017-06-29T21:34:46.410Z,1.23
2017-06-29T21:37:14.844Z,1.00
2017-06-29T21:39:43.403Z,1.33
2017-06-29T21:42:11.860Z,1.10
2017-06-29T21:44:40.302Z,1.20
2017-06-29T21:47:08.757Z,1.30
2017-06-29T21:49:37.291Z,1.10
2017-06-29T21:52:05.799Z,0.90
2017-06-29T21:54:34.250Z,1.07
2017-06-29T21:57:02.696Z,1.13
2017-06-29T21:59:31.927Z,1.00
2017-06-29T22:02:00.371Z,1.20
2017-06-29T22:04:29.790Z,0.70
2017-06-29T22:06:58.368Z,0.77
2017-06-29T22:09:26.792Z,0.63
2017-06-29T22:11:55.243Z,0.80
2017-06-29T22:14:23.704Z,0.70
2017-06-29T22:16:52.920Z,0.87
2017-06-29T22:19:21.352Z,0.90
2017-06-29T22:21:49.797Z,0.70
2017-06-29T22:24:18.239Z,0.77
2017-06-29T22:26:47.518Z,0.80
2017-06-29T22:29:16.101Z,1.00
2017-06-29T22:31:44.538Z,0.93
2017-06-29T22:34:13.050Z,0.70
2017-06-29T22:36:41.476Z,0.70
2017-06-29T22:39:10.691Z,0.80
2017-06-29T22:41:39.127Z,0.60
2017-06-29T22:44:07.596Z,0.70
2017-06-29T22:46:36.035Z,0.60
2017-06-29T22:49:04.471Z,0.67
2017-06-29T22:51:32.893Z,0.73
2017-06-29T22:54:02.087Z,0.80
2017-06-29T22:56:31.459Z,0.60
2017-06-29T22:59:00.009Z,0.50
2017-06-29T23:01:28.448Z,0.50
2017-06-29T23:03:57.654Z,1.00
2017-06-29T23:06:26.831Z,0.70
2017-06-29T23:08:56.191Z,0.70
2017-06-29T23:11:24.620Z,0.80
2017-06-29T23:13:53.190Z,0.43
2017-06-29T23:16:21.623Z,0.60
2017-06-29T23:18:50.055Z,0.50
2017-06-29T23:21:18.470Z,0.60
2017-06-29T23:23:46.920Z,1.00
2017-06-29T23:26:15.363Z,0.93
2017-06-29T23:28:43.799Z,0.80
2017-06-29T23:31:13.013Z,0.60
2017-06-29T23:33:42.214Z,0.70
2017-06-29T23:36:10.635Z,0.70
2017-06-29T23:38:39.098Z,0.73
2017-06-29T23:41:07.527Z,0.67
2017-06-29T23:43:35.955Z,0.60
2017-06-29T23:46:04.394Z,0.60
2017-06-29T23:48:32.839Z,0.83
2017-06-29T23:51:01.268Z,0.60
2017-06-29T23:53:30.462Z,0.80
2017-06-29T23:55:59.667Z,0.80
2017-06-29T23:58:28.874Z,0.70
